sensor_id;sensor_type;location;lat;lon;timestamp;pressure;altitude;pressure_sealevel;temperature;humidity
2188;BME280;1100;52.014;8.540;2024-03-06T00:01:04;100643.16;;;11.83;100.00
2188;BME280;1100;52.014;8.540;2024-03-06T00:03:29;100447.84;;;9.87;100.00
2188;BME280;1100;52.014;8.540;2024-03-06T00:05:54;100639.03;;;10.80;100.00
2188;BME280;1100;52.014;8.540;2024-03-06T00:08:20;100630.88;;;11.10;100.00
2188;BME280;1100;52.014;8.540;2024-03-06T00:10:45;100623.31;;;11.64;100.00
2188;BME280;1100;52.014;8.540;2024-03-06T00:13:10;100624.63;;;10.86;100.00
2188;BME280;1100;52.014;8.540;2024-03-06T00:15:35;100605.22;;;12.39;100.00
2188;BME280;1100;52.014;8.540;2024-03-06T00:18:01;100599.16;;;16.27;100.00
2188;BME280;1100;52.014;8.540;2024-03-06T00:20:27;100589.69;;;15.74;100.00
2188;BME280;1100;52.014;8.540;2024-03-06T00:22:53;100597.91;;;12.29;100.00
2188;BME280;1100;52.014;8.540;2024-03-06T00:25:18;100598.03;;;13.50;100.00
2188;BME280;1100;52.014;8.540;2024-03-06T00:27:44;100597.63;;;14.13;100.00
2188;BME280;1100;52.014;8.540;2024-03-06T00:30:09;100589.38;;;12.19;100.00
2188;BME280;1100;52.014;8.540;2024-03-06T00:32:35;100592.44;;;11.92;100.00
2188;BME280;1100;52.014;8.540;2024-03-06T00:35:01;128749.09;;;-150.55;32.52
2188;BME280;1100;52.014;8.540;2024-03-06T00:37:26;100601.06;;;11.81;100.00
2188;BME280;1100;52.014;8.540;2024-03-06T00:39:51;100597.22;;;12.25;100.00
2188;BME280;1100;52.014;8.540;2024-03-06T00:42:17;100597.22;;;12.25;100.00
2188;BME280;1100;52.014;8.540;2024-03-06T00:44:42;100602.63;;;14.53;100.00
2188;BME280;1100;52.014;8.540;2024-03-06T00:47:07;72207.28;;;-149.22;0.00
2188;BME280;1100;52.014;8.540;2024-03-06T00:49:33;72054.84;;;-150.55;100.00
2188;BME280;1100;52.014;8.540;2024-03-06T00:51:58;77540.06;;;-149.22;100.00
2188;BME280;1100;52.014;8.540;2024-03-06T00:54:23;84883.72;;;-47.98;100.00
2188;BME280;1100;52.014;8.540;2024-03-06T00:56:49;72820.38;;;-101.28;100.00
2188;BME280;1100;52.014;8.540;2024-03-06T00:59:14;72054.84;;;-150.55;100.00
2188;BME280;1100;52.014;8.540;2024-03-06T01:01:39;72054.84;;;-150.55;100.00
2188;BME280;1100;52.014;8.540;2024-03-06T01:04:05;72054.84;;;-150.55;100.00
2188;BME280;1100;52.014;8.540;2024-03-06T01:06:30;72054.84;;;-150.55;100.00
2188;BME280;1100;52.014;8.540;2024-03-06T01:08:56;72054.84;;;-150.55;100.00
2188;BME280;1100;52.014;8.540;2024-03-06T01:11:22;72054.84;;;-150.55;100.00
2188;BME280;1100;52.014;8.540;2024-03-06T01:13:47;72054.84;;;-150.55;100.00
2188;BME280;1100;52.014;8.540;2024-03-06T01:16:12;72054.84;;;-150.55;100.00
2188;BME280;1100;52.014;8.540;2024-03-06T01:18:38;100572.47;;;12.56;100.00
2188;BME280;1100;52.014;8.540;2024-03-06T01:21:03;72054.84;;;-150.55;100.00
2188;BME280;1100;52.014;8.540;2024-03-06T01:23:28;100730.50;;;15.01;100.00
2188;BME280;1100;52.014;8.540;2024-03-06T01:25:54;72054.84;;;-149.22;100.00
2188;BME280;1100;52.014;8.540;2024-03-06T01:28:19;72054.84;;;-150.55;100.00
2188;BME280;1100;52.014;8.540;2024-03-06T01:30:45;72054.84;;;-150.55;100.00
2188;BME280;1100;52.014;8.540;2024-03-06T01:33:10;93222.59;;;-63.97;100.00
2188;BME280;1100;52.014;8.540;2024-03-06T01:35:36;100264.72;;;-150.55;100.00
2188;BME280;1100;52.014;8.540;2024-03-06T01:38:01;72054.84;;;-150.55;100.00
2188;BME280;1100;52.014;8.540;2024-03-06T01:40:26;100396.91;;;13.76;100.00
2188;BME280;1100;52.014;8.540;2024-03-06T01:42:52;184120.31;;;14.67;100.00
2188;BME280;1100;52.014;8.540;2024-03-06T01:45:17;100246.84;;;14.17;100.00
2188;BME280;1100;52.014;8.540;2024-03-06T01:47:43;77911.59;;;-150.55;100.00
2188;BME280;1100;52.014;8.540;2024-03-06T01:50:09;72111.38;;;-150.55;100.00
2188;BME280;1100;52.014;8.540;2024-03-06T01:52:35;72054.84;;;-150.55;100.00
2188;BME280;1100;52.014;8.540;2024-03-06T01:55:02;72054.84;;;-150.55;100.00
2188;BME280;1100;52.014;8.540;2024-03-06T01:57:27;72054.84;;;-150.55;100.00
2188;BME280;1100;52.014;8.540;2024-03-06T01:59:53;72054.84;;;-150.55;100.00
2188;BME280;1100;52.014;8.540;2024-03-06T02:02:22;72054.84;;;-150.55;100.00
2188;BME280;1100;52.014;8.540;2024-03-06T02:04:48;72054.84;;;-150.55;100.00
2188;BME280;1100;52.014;8.540;2024-03-06T02:07:14;72054.84;;;-150.55;100.00
2188;BME280;1100;52.014;8.540;2024-03-06T02:09:45;72054.84;;;-150.55;100.00
2188;BME280;1100;52.014;8.540;2024-03-06T02:12:22;72054.84;;;-150.55;100.00
2188;BME280;1100;52.014;8.540;2024-03-06T02:14:48;72054.84;;;-150.55;100.00
2188;BME280;1100;52.014;8.540;2024-03-06T02:17:13;72054.84;;;-150.55;100.00
2188;BME280;1100;52.014;8.540;2024-03-06T02:19:43;72054.84;;;-150.55;100.00
2188;BME280;1100;52.014;8.540;2024-03-06T02:22:12;72054.84;;;-150.55;100.00
2188;BME280;1100;52.014;8.540;2024-03-06T02:24:38;100420.91;;;6.56;100.00
2188;BME280;1100;52.014;8.540;2024-03-06T02:27:04;100416.28;;;6.35;100.00
2188;BME280;1100;52.014;8.540;2024-03-06T02:29:33;72666.63;;;-150.55;100.00
2188;BME280;1100;52.014;8.540;2024-03-06T02:31:58;100421.91;;;6.02;100.00
2188;BME280;1100;52.014;8.540;2024-03-06T02:34:24;100421.13;;;6.05;100.00
2188;BME280;1100;52.014;8.540;2024-03-06T02:36:51;100425.44;;;6.10;100.00
2188;BME280;1100;52.014;8.540;2024-03-06T02:39:16;100418.69;;;6.18;100.00
2188;BME280;1100;52.014;8.540;2024-03-06T02:41:42;100414.78;;;6.01;100.00
2188;BME280;1100;52.014;8.540;2024-03-06T02:44:08;100409.25;;;6.12;100.00
2188;BME280;1100;52.014;8.540;2024-03-06T02:46:33;100413.16;;;6.26;100.00
2188;BME280;1100;52.014;8.540;2024-03-06T02:48:59;100413.13;;;6.33;100.00
2188;BME280;1100;52.014;8.540;2024-03-06T02:51:24;100408.44;;;6.19;100.00
2188;BME280;1100;52.014;8.540;2024-03-06T02:53:49;100410.47;;;6.04;100.00
2188;BME280;1100;52.014;8.540;2024-03-06T02:56:18;100414.78;;;6.01;100.00
2188;BME280;1100;52.014;8.540;2024-03-06T02:58:45;100406.97;;;5.85;100.00
2188;BME280;1100;52.014;8.540;2024-03-06T03:01:10;100411.69;;;5.84;100.00
2188;BME280;1100;52.014;8.540;2024-03-06T03:03:35;100417.28;;;5.63;100.00
2188;BME280;1100;52.014;8.540;2024-03-06T03:06:01;100416.09;;;5.60;100.00
2188;BME280;1100;52.014;8.540;2024-03-06T03:08:27;100414.50;;;5.63;100.00
2188;BME280;1100;52.014;8.540;2024-03-06T03:10:52;100422.00;;;5.58;100.00
2188;BME280;1100;52.014;8.540;2024-03-06T03:13:17;100423.97;;;5.61;100.00
2188;BME280;1100;52.014;8.540;2024-03-06T03:15:43;100418.09;;;5.52;100.00
2188;BME280;1100;52.014;8.540;2024-03-06T03:18:08;100425.94;;;5.57;100.00
2188;BME280;1100;52.014;8.540;2024-03-06T03:20:33;100439.72;;;5.68;100.00
2188;BME280;1100;52.014;8.540;2024-03-06T03:23:00;100432.59;;;5.78;100.00
2188;BME280;1100;52.014;8.540;2024-03-06T03:25:26;100429.44;;;5.80;100.00
2188;BME280;1100;52.014;8.540;2024-03-06T03:27:52;100436.16;;;5.75;100.00
2188;BME280;1100;52.014;8.540;2024-03-06T03:30:17;100444.44;;;5.79;100.00
2188;BME280;1100;52.014;8.540;2024-03-06T03:32:45;100433.03;;;5.58;100.00
2188;BME280;1100;52.014;8.540;2024-03-06T03:35:10;100443.28;;;5.29;100.00
2188;BME280;1100;52.014;8.540;2024-03-06T03:37:36;100448.78;;;5.18;100.00
2188;BME280;1100;52.014;8.540;2024-03-06T03:40:01;100444.06;;;5.18;100.00
2188;BME280;1100;52.014;8.540;2024-03-06T03:42:28;100444.84;;;5.15;100.00
2188;BME280;1100;52.014;8.540;2024-03-06T03:44:53;100445.25;;;5.17;100.00
2188;BME280;1100;52.014;8.540;2024-03-06T03:47:18;100445.66;;;5.12;100.00
2188;BME280;1100;52.014;8.540;2024-03-06T03:49:43;100446.81;;;5.07;100.00
2188;BME280;1100;52.014;8.540;2024-03-06T03:52:09;100453.53;;;5.14;100.00
2188;BME280;1100;52.014;8.540;2024-03-06T03:54:34;100457.06;;;5.14;100.00
2188;BME280;1100;52.014;8.540;2024-03-06T03:57:00;100461.38;;;5.22;100.00
2188;BME280;1100;52.014;8.540;2024-03-06T03:59:26;100457.44;;;5.16;100.00
2188;BME280;1100;52.014;8.540;2024-03-06T04:01:51;100461.78;;;5.21;100.00
2188;BME280;1100;52.014;8.540;2024-03-06T04:04:17;100461.41;;;5.26;100.00
2188;BME280;1100;52.014;8.540;2024-03-06T04:06:42;100472.06;;;5.35;100.00
2188;BME280;1100;52.014;8.540;2024-03-06T04:09:07;100472.44;;;5.37;100.00
2188;BME280;1100;52.014;8.540;2024-03-06T04:11:36;100473.22;;;5.48;100.00
2188;BME280;1100;52.014;8.540;2024-03-06T04:14:03;100465.34;;;5.58;100.00
2188;BME280;1100;52.014;8.540;2024-03-06T04:16:28;100470.06;;;5.57;100.00
2188;BME280;1100;52.014;8.540;2024-03-06T04:18:53;100470.88;;;5.36;100.00
2188;BME280;1100;52.014;8.540;2024-03-06T04:21:18;100475.59;;;5.39;100.00
2188;BME280;1100;52.014;8.540;2024-03-06T04:23:44;100479.53;;;5.45;100.00
2188;BME280;1100;52.014;8.540;2024-03-06T04:26:09;100478.72;;;5.45;100.00
2188;BME280;1100;52.014;8.540;2024-03-06T04:28:34;100487.00;;;5.45;100.00
2188;BME280;1100;52.014;8.540;2024-03-06T04:31:00;100482.28;;;5.49;100.00
2188;BME280;1100;52.014;8.540;2024-03-06T04:33:25;100488.59;;;5.53;100.00
2188;BME280;1100;52.014;8.540;2024-03-06T04:35:50;100494.50;;;5.52;100.00
2188;BME280;1100;52.014;8.540;2024-03-06T04:38:17;100490.16;;;5.47;100.00
2188;BME280;1100;52.014;8.540;2024-03-06T04:40:42;100503.16;;;5.35;100.00
2188;BME280;1100;52.014;8.540;2024-03-06T04:43:08;100506.31;;;5.38;100.00
2188;BME280;1100;52.014;8.540;2024-03-06T04:45:33;100502.78;;;5.33;100.00
2188;BME280;1100;52.014;8.540;2024-03-06T04:47:58;100502.78;;;5.33;100.00
2188;BME280;1100;52.014;8.540;2024-03-06T04:50:24;100501.19;;;5.40;100.00
2188;BME280;1100;52.014;8.540;2024-03-06T04:52:50;100507.50;;;5.36;100.00
2188;BME280;1100;52.014;8.540;2024-03-06T04:55:15;100513.41;;;5.31;100.00
2188;BME280;1100;52.014;8.540;2024-03-06T04:57:45;100511.03;;;5.33;100.00
2188;BME280;1100;52.014;8.540;2024-03-06T05:00:11;100513.78;;;5.30;100.00
2188;BME280;1100;52.014;8.540;2024-03-06T05:02:37;100518.13;;;5.42;100.00
2188;BME280;1100;52.014;8.540;2024-03-06T05:05:03;100520.50;;;5.47;100.00
2188;BME280;1100;52.014;8.540;2024-03-06T05:07:30;100529.53;;;5.51;100.00
2188;BME280;1100;52.014;8.540;2024-03-06T05:09:56;100525.59;;;5.45;100.00
2188;BME280;1100;52.014;8.540;2024-03-06T05:12:25;100527.97;;;5.46;100.00
2188;BME280;1100;52.014;8.540;2024-03-06T05:14:51;100533.09;;;5.48;100.00
2188;BME280;1100;52.014;8.540;2024-03-06T05:17:17;100540.75;;;5.47;100.00
2188;BME280;1100;52.014;8.540;2024-03-06T05:19:44;100543.34;;;5.47;100.00
2188;BME280;1100;52.014;8.540;2024-03-06T05:22:10;100541.38;;;5.48;100.00
2188;BME280;1100;52.014;8.540;2024-03-06T05:24:37;100540.97;;;5.42;100.00
2188;BME280;1100;52.014;8.540;2024-03-06T05:27:02;100546.50;;;5.42;100.00
2188;BME280;1100;52.014;8.540;2024-03-06T05:29:27;100544.91;;;5.48;100.00
2188;BME280;1100;52.014;8.540;2024-03-06T05:31:55;100550.41;;;5.27;100.00
2188;BME280;1100;52.014;8.540;2024-03-06T05:34:22;100546.09;;;5.40;100.00
2188;BME280;1100;52.014;8.540;2024-03-06T05:36:47;100557.94;;;5.44;100.00
2188;BME280;1100;52.014;8.540;2024-03-06T05:39:13;100560.66;;;5.41;100.00
2188;BME280;1100;52.014;8.540;2024-03-06T05:41:39;100559.50;;;5.38;100.00
2188;BME280;1100;52.014;8.540;2024-03-06T05:44:05;100561.84;;;5.43;100.00
2188;BME280;1100;52.014;8.540;2024-03-06T05:46:30;100566.97;;;5.48;100.00
2188;BME280;1100;52.014;8.540;2024-03-06T05:48:56;100578.81;;;5.60;100.00
2188;BME280;1100;52.014;8.540;2024-03-06T05:51:21;100576.81;;;5.60;100.00
2188;BME280;1100;52.014;8.540;2024-03-06T05:53:46;100579.59;;;5.60;100.00
2188;BME280;1100;52.014;8.540;2024-03-06T05:56:12;100574.84;;;5.46;100.00
2188;BME280;1100;52.014;8.540;2024-03-06T05:58:37;100583.53;;;5.48;100.00
2188;BME280;1100;52.014;8.540;2024-03-06T06:01:02;100590.63;;;5.46;100.00
2188;BME280;1100;52.014;8.540;2024-03-06T06:03:30;100591.38;;;5.46;100.00
2188;BME280;1100;52.014;8.540;2024-03-06T06:05:56;100596.13;;;5.53;100.00
2188;BME280;1100;52.014;8.540;2024-03-06T06:08:22;100602.03;;;5.48;100.00
2188;BME280;1100;52.014;8.540;2024-03-06T06:10:47;100602.44;;;5.54;100.00
2188;BME280;1100;52.014;8.540;2024-03-06T06:13:13;100604.41;;;5.46;100.00
2188;BME280;1100;52.014;8.540;2024-03-06T06:15:38;100609.50;;;5.44;100.00
2188;BME280;1100;52.014;8.540;2024-03-06T06:18:04;100620.53;;;5.40;100.00
2188;BME280;1100;52.014;8.540;2024-03-06T06:20:29;100617.00;;;5.47;100.00
2188;BME280;1100;52.014;8.540;2024-03-06T06:22:55;100622.53;;;5.51;100.00
2188;BME280;1100;52.014;8.540;2024-03-06T06:25:20;100610.72;;;5.61;100.00
2188;BME280;1100;52.014;8.540;2024-03-06T06:27:46;100627.25;;;5.50;100.00
2188;BME280;1100;52.014;8.540;2024-03-06T06:30:11;100628.81;;;5.51;100.00
2188;BME280;1100;52.014;8.540;2024-03-06T06:32:37;100635.94;;;5.63;100.00
2188;BME280;1100;52.014;8.540;2024-03-06T06:35:04;100633.19;;;5.63;100.00
2188;BME280;1100;52.014;8.540;2024-03-06T06:37:30;100641.47;;;5.63;100.00
2188;BME280;1100;52.014;8.540;2024-03-06T06:39:55;100645.00;;;5.64;100.00
2188;BME280;1100;52.014;8.540;2024-03-06T06:42:21;100645.00;;;5.64;100.00
2188;BME280;1100;52.014;8.540;2024-03-06T06:44:46;100652.50;;;5.67;100.00
2188;BME280;1100;52.014;8.540;2024-03-06T06:47:11;100654.09;;;5.75;100.00
2188;BME280;1100;52.014;8.540;2024-03-06T06:49:37;100662.38;;;5.75;100.00
2188;BME280;1100;52.014;8.540;2024-03-06T06:52:02;100663.56;;;5.81;100.00
2188;BME280;1100;52.014;8.540;2024-03-06T06:54:27;100667.09;;;5.78;100.00
2188;BME280;1100;52.014;8.540;2024-03-06T06:56:53;100669.84;;;5.78;100.00
2188;BME280;1100;52.014;8.540;2024-03-06T06:59:19;100671.81;;;5.70;100.00
2188;BME280;1100;52.014;8.540;2024-03-06T07:01:45;100671.78;;;5.67;100.00
2188;BME280;1100;52.014;8.540;2024-03-06T07:04:11;100682.06;;;5.66;100.00
2188;BME280;1100;52.014;8.540;2024-03-06T07:06:36;72054.84;;;-150.55;100.00
2188;BME280;1100;52.014;8.540;2024-03-06T07:09:01;72054.84;;;-150.55;100.00
2188;BME280;1100;52.014;8.540;2024-03-06T07:11:27;72054.84;;;-150.55;0.00
2188;BME280;1100;52.014;8.540;2024-03-06T07:13:52;72054.84;;;-150.55;100.00
2188;BME280;1100;52.014;8.540;2024-03-06T07:16:18;72054.84;;;-150.55;100.00
2188;BME280;1100;52.014;8.540;2024-03-06T07:18:44;72054.84;;;-150.55;100.00
2188;BME280;1100;52.014;8.540;2024-03-06T07:21:09;72054.84;;;-150.55;100.00
2188;BME280;1100;52.014;8.540;2024-03-06T07:23:35;72054.84;;;-150.55;100.00
2188;BME280;1100;52.014;8.540;2024-03-06T07:26:00;72054.84;;;-150.55;100.00
2188;BME280;1100;52.014;8.540;2024-03-06T07:28:25;72054.84;;;-150.55;100.00
2188;BME280;1100;52.014;8.540;2024-03-06T07:30:51;72054.84;;;-150.55;100.00
2188;BME280;1100;52.014;8.540;2024-03-06T07:33:17;100698.13;;;5.42;100.00
2188;BME280;1100;52.014;8.540;2024-03-06T07:35:42;100693.47;;;5.68;100.00
2188;BME280;1100;52.014;8.540;2024-03-06T07:38:07;100700.19;;;5.74;100.00
2188;BME280;1100;52.014;8.540;2024-03-06T07:40:33;100704.56;;;5.86;100.00
2188;BME280;1100;52.014;8.540;2024-03-06T07:42:58;100707.31;;;5.76;100.00
2188;BME280;1100;52.014;8.540;2024-03-06T07:45:25;100701.78;;;5.83;100.00
2188;BME280;1100;52.014;8.540;2024-03-06T07:47:50;100712.47;;;5.99;100.00
2188;BME280;1100;52.014;8.540;2024-03-06T07:50:16;100702.59;;;5.91;100.00
2188;BME280;1100;52.014;8.540;2024-03-06T07:52:45;100712.88;;;6.05;100.00
2188;BME280;1100;52.014;8.540;2024-03-06T07:55:11;100718.78;;;6.03;100.00
2188;BME280;1100;52.014;8.540;2024-03-06T07:57:36;100718.78;;;5.96;100.00
2188;BME280;1100;52.014;8.540;2024-03-06T08:00:02;100721.97;;;6.05;100.00
2188;BME280;1100;52.014;8.540;2024-03-06T08:02:33;100725.50;;;6.06;100.00
2188;BME280;1100;52.014;8.540;2024-03-06T08:05:00;100727.03;;;5.99;100.00
2188;BME280;1100;52.014;8.540;2024-03-06T08:07:25;100733.78;;;6.06;100.00
2188;BME280;1100;52.014;8.540;2024-03-06T08:09:51;100732.63;;;6.14;100.00
2188;BME280;1100;52.014;8.540;2024-03-06T08:12:16;100729.84;;;6.21;100.00
2188;BME280;1100;52.014;8.540;2024-03-06T08:14:41;100733.78;;;6.17;100.00
2188;BME280;1100;52.014;8.540;2024-03-06T08:17:07;100745.25;;;6.26;100.00
2188;BME280;1100;52.014;8.540;2024-03-06T08:19:32;100742.09;;;6.31;100.00
2188;BME280;1100;52.014;8.540;2024-03-06T08:21:57;100752.34;;;6.34;100.00
2188;BME280;1100;52.014;8.540;2024-03-06T08:24:23;100751.16;;;6.28;100.00
2188;BME280;1100;52.014;8.540;2024-03-06T08:26:49;100752.75;;;6.22;100.00
2188;BME280;1100;52.014;8.540;2024-03-06T08:29:14;100751.53;;;6.16;100.00
2188;BME280;1100;52.014;8.540;2024-03-06T08:31:39;100757.47;;;6.18;100.00
2188;BME280;1100;52.014;8.540;2024-03-06T08:34:05;100766.53;;;6.22;100.00
2188;BME280;1100;52.014;8.540;2024-03-06T08:36:30;100768.13;;;6.23;100.00
2188;BME280;1100;52.014;8.540;2024-03-06T08:38:55;100768.13;;;6.19;100.00
2188;BME280;1100;52.014;8.540;2024-03-06T08:41:21;100761.44;;;6.24;100.00
2188;BME280;1100;52.014;8.540;2024-03-06T08:43:46;100770.50;;;6.28;100.00
2188;BME280;1100;52.014;8.540;2024-03-06T08:46:12;100781.56;;;6.32;100.00
2188;BME280;1100;52.014;8.540;2024-03-06T08:48:37;100776.03;;;6.32;100.00
2188;BME280;1100;52.014;8.540;2024-03-06T08:51:04;100776.03;;;6.32;100.00
2188;BME280;1100;52.014;8.540;2024-03-06T08:53:35;100779.19;;;6.38;100.00
2188;BME280;1100;52.014;8.540;2024-03-06T08:56:01;100784.31;;;6.35;100.00
2188;BME280;1100;52.014;8.540;2024-03-06T08:58:26;100783.91;;;6.33;100.00
2188;BME280;1100;52.014;8.540;2024-03-06T09:00:51;100795.34;;;6.28;100.00
2188;BME280;1100;52.014;8.540;2024-03-06T09:03:17;100786.66;;;6.26;100.00
2188;BME280;1100;52.014;8.540;2024-03-06T09:05:43;100793.38;;;6.32;100.00
2188;BME280;1100;52.014;8.540;2024-03-06T09:08:08;100793.78;;;6.42;100.00
2188;BME280;1100;52.014;8.540;2024-03-06T09:10:34;100809.19;;;6.50;100.00
2188;BME280;1100;52.014;8.540;2024-03-06T09:13:00;100794.56;;;6.53;100.00
2188;BME280;1100;52.014;8.540;2024-03-06T09:15:25;100805.22;;;6.44;100.00
2188;BME280;1100;52.014;8.540;2024-03-06T09:17:51;100807.19;;;6.43;100.00
2188;BME280;1100;52.014;8.540;2024-03-06T09:20:16;100810.75;;;6.51;100.00
2188;BME280;1100;52.014;8.540;2024-03-06T09:22:42;100809.19;;;6.57;100.00
2188;BME280;1100;52.014;8.540;2024-03-06T09:25:08;100820.25;;;6.54;100.00
2188;BME280;1100;52.014;8.540;2024-03-06T09:27:33;100813.50;;;6.62;100.00
2188;BME280;1100;52.014;8.540;2024-03-06T09:29:59;100819.03;;;6.55;100.00
2188;BME280;1100;52.014;8.540;2024-03-06T09:32:24;100818.63;;;6.53;100.00
2188;BME280;1100;52.014;8.540;2024-03-06T09:34:51;100830.47;;;6.50;100.00
2188;BME280;1100;52.014;8.540;2024-03-06T09:37:17;100827.72;;;6.53;100.00
2188;BME280;1100;52.014;8.540;2024-03-06T09:39:42;100820.63;;;6.56;100.00
2188;BME280;1100;52.014;8.540;2024-03-06T09:42:08;100822.19;;;6.60;100.00
2188;BME280;1100;52.014;8.540;2024-03-06T09:44:34;100832.09;;;6.72;100.00
2188;BME280;1100;52.014;8.540;2024-03-06T09:47:02;100827.34;;;6.91;100.00
2188;BME280;1100;52.014;8.540;2024-03-06T09:49:31;100836.44;;;6.88;100.00
2188;BME280;1100;52.014;8.540;2024-03-06T09:51:58;100833.25;;;6.97;100.00
2188;BME280;1100;52.014;8.540;2024-03-06T09:54:25;100843.13;;;7.02;100.00
2188;BME280;1100;52.014;8.540;2024-03-06T09:56:51;100832.88;;;7.02;100.00
2188;BME280;1100;52.014;8.540;2024-03-06T09:59:16;100836.81;;;7.05;100.00
2188;BME280;1100;52.014;8.540;2024-03-06T10:04:20;100845.09;;;7.08;100.00
2188;BME280;1100;52.014;8.540;2024-03-06T10:06:46;100840.78;;;7.07;100.00
2188;BME280;1100;52.014;8.540;2024-03-06T10:09:11;100851.44;;;7.02;100.00
2188;BME280;1100;52.014;8.540;2024-03-06T10:11:40;100856.56;;;7.03;100.00
2188;BME280;1100;52.014;8.540;2024-03-06T10:14:07;100851.41;;;7.13;100.00
2188;BME280;1100;52.014;8.540;2024-03-06T10:16:33;100847.84;;;7.19;100.00
2188;BME280;1100;52.014;8.540;2024-03-06T10:19:15;100843.91;;;7.20;100.00
2188;BME280;1100;52.014;8.540;2024-03-06T10:21:42;100857.72;;;7.24;100.00
2188;BME280;1100;52.014;8.540;2024-03-06T10:24:09;100854.56;;;7.22;100.00
2188;BME280;1100;52.014;8.540;2024-03-06T10:26:34;100858.91;;;7.19;100.00
2188;BME280;1100;52.014;8.540;2024-03-06T10:29:00;100848.25;;;7.25;100.00
2188;BME280;1100;52.014;8.540;2024-03-06T10:31:27;100861.28;;;7.25;100.00
2188;BME280;1100;52.014;8.540;2024-03-06T10:33:53;100858.91;;;7.19;100.00
2188;BME280;1100;52.014;8.540;2024-03-06T10:36:19;100858.91;;;7.19;100.00
2188;BME280;1100;52.014;8.540;2024-03-06T10:38:44;100855.34;;;7.19;100.00
2188;BME280;1100;52.014;8.540;2024-03-06T10:41:12;100872.34;;;7.17;100.00
2188;BME280;1100;52.014;8.540;2024-03-06T10:43:39;100871.97;;;7.15;100.00
2188;BME280;1100;52.014;8.540;2024-03-06T10:46:10;100870.38;;;7.21;100.00
2188;BME280;1100;52.014;8.540;2024-03-06T10:48:36;100872.34;;;7.32;100.00
2188;BME280;1100;52.014;8.540;2024-03-06T10:51:03;100866.38;;;7.41;100.00
2188;BME280;1100;52.014;8.540;2024-03-06T10:53:31;100874.28;;;7.46;100.00
2188;BME280;1100;52.014;8.540;2024-03-06T10:55:58;100875.88;;;7.43;100.00
2188;BME280;1100;52.014;8.540;2024-03-06T10:58:25;100879.41;;;7.47;100.00
2188;BME280;1100;52.014;8.540;2024-03-06T11:00:51;100870.72;;;7.45;100.00
2188;BME280;1100;52.014;8.540;2024-03-06T11:03:16;100874.69;;;7.44;100.00
2188;BME280;1100;52.014;8.540;2024-03-06T11:05:43;100882.19;;;7.44;100.00
2188;BME280;1100;52.014;8.540;2024-03-06T11:08:14;100888.16;;;7.39;100.00
2188;BME280;1100;52.014;8.540;2024-03-06T11:10:41;100886.53;;;7.38;100.00
2188;BME280;1100;52.014;8.540;2024-03-06T11:13:25;100893.28;;;7.37;100.00
2188;BME280;1100;52.014;8.540;2024-03-06T11:15:53;100890.09;;;7.34;100.00
2188;BME280;1100;52.014;8.540;2024-03-06T11:20:59;100900.38;;;7.27;100.00
2188;BME280;1100;52.014;8.540;2024-03-06T11:23:24;100898.81;;;7.29;100.00
2188;BME280;1100;52.014;8.540;2024-03-06T11:28:39;100903.53;;;7.36;100.00
2188;BME280;1100;52.014;8.540;2024-03-06T11:31:08;100903.94;;;7.42;100.00
2188;BME280;1100;52.014;8.540;2024-03-06T11:33:41;100904.31;;;7.33;100.00
2188;BME280;1100;52.014;8.540;2024-03-06T11:36:23;100910.66;;;7.33;100.00
2188;BME280;1100;52.014;8.540;2024-03-06T11:38:59;100914.22;;;7.30;100.00
2188;BME280;1100;52.014;8.540;2024-03-06T11:41:27;100907.50;;;7.28;100.00
2188;BME280;1100;52.014;8.540;2024-03-06T11:43:54;100915.81;;;7.39;100.00
2188;BME280;1100;52.014;8.540;2024-03-06T11:46:21;100912.63;;;7.40;100.00
2188;BME280;1100;52.014;8.540;2024-03-06T11:48:56;100910.66;;;7.44;100.00
2188;BME280;1100;52.014;8.540;2024-03-06T11:51:22;100916.56;;;7.43;100.00
2188;BME280;1100;52.014;8.540;2024-03-06T11:53:51;100914.19;;;7.52;100.00
2188;BME280;1100;52.014;8.540;2024-03-06T11:56:20;100918.53;;;7.60;100.00
2188;BME280;1100;52.014;8.540;2024-03-06T11:58:46;100918.94;;;7.48;100.00
2188;BME280;1100;52.014;8.540;2024-03-06T12:01:14;100918.94;;;7.59;100.00
2188;BME280;1100;52.014;8.540;2024-03-06T12:03:39;100922.88;;;7.65;100.00
2188;BME280;1100;52.014;8.540;2024-03-06T12:06:06;100918.94;;;7.59;100.00
2188;BME280;1100;52.014;8.540;2024-03-06T12:08:33;100922.47;;;7.67;100.00
2188;BME280;1100;52.014;8.540;2024-03-06T12:11:02;100918.47;;;7.82;100.00
2188;BME280;1100;52.014;8.540;2024-03-06T12:13:27;100919.63;;;8.00;100.00
2188;BME280;1100;52.014;8.540;2024-03-06T12:15:52;100921.53;;;8.17;100.00
2188;BME280;1100;52.014;8.540;2024-03-06T12:18:18;100921.78;;;8.48;100.00
2188;BME280;1100;52.014;8.540;2024-03-06T12:20:44;100924.31;;;8.92;100.00
2188;BME280;1100;52.014;8.540;2024-03-06T12:23:19;100932.19;;;9.47;100.00
2188;BME280;1100;52.014;8.540;2024-03-06T12:25:46;100920.44;;;9.74;100.00
2188;BME280;1100;52.014;8.540;2024-03-06T12:28:11;100923.50;;;9.83;100.00
2188;BME280;1100;52.014;8.540;2024-03-06T12:30:42;100919.22;;;9.75;100.00
2188;BME280;1100;52.014;8.540;2024-03-06T12:33:09;100920.72;;;9.83;100.00
2188;BME280;1100;52.014;8.540;2024-03-06T12:35:35;100926.72;;;9.78;100.00
2188;BME280;1100;52.014;8.540;2024-03-06T12:38:14;100925.44;;;9.87;100.00
2188;BME280;1100;52.014;8.540;2024-03-06T12:40:40;100927.13;;;9.77;100.00
2188;BME280;1100;52.014;8.540;2024-03-06T12:43:06;100924.38;;;9.73;100.00
2188;BME280;1100;52.014;8.540;2024-03-06T12:45:32;100925.91;;;9.78;100.00
2188;BME280;1100;52.014;8.540;2024-03-06T12:47:58;100924.38;;;9.73;100.00
2188;BME280;1100;52.014;8.540;2024-03-06T12:50:23;100923.34;;;9.59;100.00
2188;BME280;1100;52.014;8.540;2024-03-06T12:52:48;100935.41;;;9.42;100.00
2188;BME280;1100;52.014;8.540;2024-03-06T12:55:14;100931.91;;;9.30;100.00
2188;BME280;1100;52.014;8.540;2024-03-06T12:57:39;100924.88;;;9.18;100.00
2188;BME280;1100;52.014;8.540;2024-03-06T13:00:05;100921.88;;;9.02;100.00
2188;BME280;1100;52.014;8.540;2024-03-06T13:02:41;100923.91;;;8.94;100.00
2188;BME280;1100;52.014;8.540;2024-03-06T13:05:07;100926.63;;;9.01;100.00
2188;BME280;1100;52.014;8.540;2024-03-06T13:07:33;100919.50;;;9.00;100.00
2188;BME280;1100;52.014;8.540;2024-03-06T13:09:58;100921.56;;;8.89;100.00